• Join FlightAware (Why Join?)
  • Login
  • US Flag 
02:30PM EDT


 

Airport Tracker/Info


-or-


 

Live Flight TrackerFlight Track Log ✈ DLH917 ✈ 10-Apr-2013 ✈ EGLL / LHR - EDDF / FRA

Flight Track Log - Related Links

Times and Time Zones

All times are in EDT time to prevent confusion due to time zone crossing. See the DLH917 flight status page for this flight to view local times or setup timezone preferences in your user account.

Time Position Orientation Groundspeed Altitude Reporting Facility
EDT Latitude Longitude Course Direction KTS MPH feet Rate Location/Type
02:20PM 51.4244 -0.0210 101° East  Level Estimated
02:21PM 51.4064 0.1255 101° East  Level Estimated
02:22PM 51.3881 0.2720 101° East  Level Estimated
02:23PM 51.3697 0.4183 101° East  Level Estimated
02:24PM 51.3511 0.5645 101° East  Level Estimated
02:25PM 51.3323 0.7106 102° East  Level Estimated
02:26PM 51.3134 0.8566 102° East  Level Estimated
02:27PM 51.2942 1.0024 102° East  Level Estimated
02:28PM 51.2749 1.1482 102° East  Level Estimated
02:29PM 51.2554 1.2938 102° East  Level Estimated
02:30PM 51.2357 1.4392 102° East  Level Estimated
02:31PM 51.2158 1.5846 102° East  Level Estimated
02:32PM 51.1958 1.7298 102° East  Level Estimated
02:33PM 51.1755 1.8749 102° East  Level Estimated
02:34PM 51.1551 2.0199 103° East  Level Estimated
02:35PM 51.1345 2.1647 103° East  Level Estimated
02:36PM 51.1138 2.3094 103° East  Level Estimated
02:37PM 51.0928 2.4540 103° East  Level Estimated
02:38PM 51.0717 2.5985 103° East  Level Estimated
02:39PM 51.0504 2.7428 103° East  Level Estimated
02:40PM 51.0289 2.8870 103° East  Level Estimated
02:41PM 51.0073 3.0310 103° East  Level Estimated
02:42PM 50.9855 3.1750 103° East  Level Estimated
02:43PM 50.9635 3.3187 104° East  Level Estimated
02:44PM 50.9413 3.4624 104° East  Level Estimated
02:45PM 50.9189 3.6059 104° East  Level Estimated
02:46PM 50.8964 3.7493 104° East  Level Estimated
02:47PM 50.8737 3.8925 104° East  Level Estimated
02:48PM 50.8508 4.0356 104° East  Level Estimated
02:49PM 50.8277 4.1785 104° East  Level Estimated
02:50PM 50.8045 4.3214 104° East  Level Estimated
02:51PM 50.7811 4.4640 104° East  Level Estimated
02:52PM 50.7575 4.6065 105° East  Level Estimated
02:53PM 50.7337 4.7489 105° East  Level Estimated
02:54PM 50.7098 4.8911 105° East  Level Estimated
02:55PM 50.6857 5.0332 105° East  Level Estimated
02:56PM 50.6614 5.1752 105° East  Level Estimated
02:57PM 50.6370 5.3170 105° East  Level Estimated
02:58PM 50.6123 5.4586 105° East  Level Estimated
02:59PM 50.5811 5.6369 105° East  Level Estimated
03:00PM 50.5495 5.8149 106° East  Level Estimated
03:01PM 50.5177 5.9927 106° East  Level Estimated
03:02PM 50.4856 6.1702 106° East  Level Estimated
03:03PM 50.4533 6.3475 106° East  Level Estimated
03:04PM 50.4207 6.5246 106° East  Level Estimated
03:05PM 50.3878 6.7014 106° East  Level Estimated
03:06PM 50.3546 6.8780 106° East  Level Estimated
03:07PM 50.3212 7.0543 106° East  Level Estimated
03:08PM 50.2875 7.2304 107° East  Level Estimated
03:09PM 50.2536 7.4062 107° East  Level Estimated
03:10PM 50.2194 7.5818 107° East  Level Estimated
03:11PM 50.1849 7.7571 107° East  Level Estimated
03:12PM 50.1501 7.9322 107° East  Level Estimated
03:13PM 50.1151 8.1070 107° East  Level Estimated
03:14PM 50.0799 8.2815 107° East  Level Estimated
03:15PM 50.0443 8.4558 108° East  Level Estimated
03:16PM 50.0264 8.5431 108° East  Level Estimated
03:17PM 50.0264 8.5431 73° East  Level Estimated
03:18PM 50.0264 8.5431 73° East  Level Estimated
03:19PM 50.0264 8.5431 73° East  Level Estimated
03:20PM 50.0264 8.5431 73° East  Level Estimated
03:21PM 50.0264 8.5431 73° East  Level Estimated
03:22PM 50.0264 8.5431 73° East  Level Estimated
03:23PM 50.0264 8.5431 73° East  Level Estimated